Time;durP1;ratioP1;P1;durP2;ratioP2;P2;SDS_P1;SDS_P2;PMS_P1;PMS_P2;Temp;Humidity;BMP_temperature;BMP_pressure;BME280_temperature;BME280_humidity;BME280_pressure;Samples;Min_cycle;Max_cycle;Signal;HPM_P1;HPM_P2
2022/01/07 00:02:15;;;;;;;4.30;1.55;;;24.90;60.30;;;;;;4967813;28;20394;-75
2022/01/07 00:04:42;;;;;;;5.25;2.08;;;24.90;60.30;;;;;;4969725;28;20026;-74
2022/01/07 00:07:09;;;;;;;5.63;1.63;;;24.90;60.40;;;;;;4966138;28;20058;-73
2022/01/07 00:09:36;;;;;;;6.25;1.95;;;24.90;60.50;;;;;;4965852;28;20094;-73
2022/01/07 00:12:05;;;;;;;7.15;1.60;;;24.90;60.50;;;;;;4971093;28;20081;-74
2022/01/07 00:14:32;;;;;;;5.40;2.13;;;24.90;60.60;;;;;;4969520;28;20023;-73
2022/01/07 00:16:58;;;;;;;5.15;1.88;;;24.90;60.70;;;;;;4969122;28;20019;-74
2022/01/07 00:19:25;;;;;;;7.57;2.53;;;24.90;60.80;;;;;;4968539;28;20058;-76
2022/01/07 00:21:51;;;;;;;5.20;1.70;;;24.90;60.90;;;;;;4966650;28;20133;-75
2022/01/07 00:24:18;;;;;;;9.57;2.92;;;24.80;61.00;;;;;;4969242;28;20102;-72
2022/01/07 00:26:44;;;;;;;18.70;3.65;;;24.80;61.20;;;;;;4966838;28;20031;-75
2022/01/07 00:29:11;;;;;;;13.65;2.78;;;24.80;61.60;;;;;;4967889;28;20042;-74
2022/01/07 00:31:37;;;;;;;7.95;1.77;;;24.80;61.80;;;;;;4960295;28;20489;-76
2022/01/07 00:34:04;;;;;;;9.57;2.85;;;24.80;61.90;;;;;;4969089;28;20058;-74
2022/01/07 00:36:30;;;;;;;7.90;1.70;;;24.80;62.00;;;;;;4965940;28;20019;-74
2022/01/07 00:39:01;;;;;;;6.32;1.80;;;24.80;62.00;;;;;;4965953;28;20031;-74
2022/01/07 00:41:27;;;;;;;8.18;2.33;;;24.70;62.00;;;;;;4950142;28;20540;-74
2022/01/07 00:44:03;;;;;;;6.35;1.92;;;24.70;62.00;;;;;;4968548;28;20019;-76
2022/01/07 00:46:30;;;;;;;7.25;1.55;;;24.70;61.90;;;;;;4950628;28;20023;-75
2022/01/07 00:49:20;;;;;;;5.60;1.83;;;24.70;61.90;;;;;;4956090;28;20046;-74
2022/01/07 00:51:48;;;;;;;11.40;2.00;;;24.70;61.90;;;;;;4971346;28;20490;-75
2022/01/07 00:54:15;;;;;;;25.15;3.05;;;24.70;61.80;;;;;;4970454;28;20023;-75
2022/01/07 00:56:42;;;;;;;17.85;3.60;;;24.70;62.00;;;;;;4974937;28;20054;-73
2022/01/07 00:59:17;;;;;;;14.38;2.33;;;24.70;62.10;;;;;;4968973;28;20031;-72
2022/01/07 01:01:43;;;;;;;;;;;24.70;62.10;;;;;;4956224;28;20081;-72
2022/01/07 01:04:18;;;;;;;6.85;2.55;;;24.70;62.10;;;;;;4973335;28;19910;-73
2022/01/07 01:06:45;;;;;;;7.30;2.20;;;24.60;62.00;;;;;;4940321;28;20085;-72
2022/01/07 01:09:13;;;;;;;7.88;2.10;;;24.60;62.10;;;;;;4973698;28;20081;-77
2022/01/07 01:11:39;;;;;;;5.22;1.73;;;24.60;62.20;;;;;;4973227;28;20437;-75
2022/01/07 01:14:06;;;;;;;4.60;2.03;;;24.60;62.40;;;;;;4973849;28;20042;-73
2022/01/07 01:16:33;;;;;;;7.18;1.88;;;24.60;62.40;;;;;;4973647;28;20356;-74
2022/01/07 01:19:00;;;;;;;7.38;1.67;;;24.60;62.50;;;;;;4974302;28;20033;-74
2022/01/07 01:21:43;;;;;;;3.67;1.25;;;24.60;62.60;;;;;;4973276;28;20038;-74
2022/01/07 01:24:09;;;;;;;8.40;1.60;;;24.60;62.70;;;;;;4968710;28;20039;-74
2022/01/07 01:26:36;;;;;;;13.35;2.75;;;24.60;62.80;;;;;;4967802;28;20023;-72
2022/01/07 01:29:03;;;;;;;10.07;2.15;;;24.60;63.00;;;;;;4971699;28;20129;-73
2022/01/07 01:31:30;;;;;;;9.93;2.97;;;24.60;63.10;;;;;;4970198;28;20089;-76
2022/01/07 01:33:57;;;;;;;8.15;2.38;;;24.60;63.20;;;;;;4966000;28;20035;-73
2022/01/07 01:36:23;;;;;;;5.32;1.70;;;24.60;63.20;;;;;;4969209;28;20019;-73
2022/01/07 01:38:50;;;;;;;8.32;1.42;;;24.60;63.20;;;;;;4968687;28;20374;-73
2022/01/07 01:41:16;;;;;;;4.93;1.60;;;24.60;63.10;;;;;;4972928;28;20060;-73
2022/01/07 01:43:43;;;;;;;6.10;2.03;;;24.60;63.00;;;;;;4966385;28;20465;-73
2022/01/07 01:46:09;;;;;;;3.03;1.35;;;24.50;63.00;;;;;;4972152;28;20026;-72
2022/01/07 01:48:36;;;;;;;12.05;2.85;;;24.50;63.10;;;;;;4969334;28;20077;-75
2022/01/07 01:51:03;;;;;;;8.55;1.77;;;24.50;63.10;;;;;;4967944;28;20859;-73
2022/01/07 01:53:30;;;;;;;6.32;1.92;;;24.50;63.20;;;;;;4971214;28;20023;-75
2022/01/07 01:55:56;;;;;;;5.53;1.67;;;24.50;63.10;;;;;;4957625;28;20089;-72
2022/01/07 01:58:23;;;;;;;5.20;1.40;;;24.50;63.20;;;;;;4972273;28;20061;-72
2022/01/07 02:00:49;;;;;;;7.15;2.00;;;24.50;63.30;;;;;;4971943;28;20109;-73
2022/01/07 02:03:16;;;;;;;3.55;1.20;;;24.50;63.40;;;;;;4972095;28;20033;-73
2022/01/07 02:05:45;;;;;;;7.70;1.98;;;24.40;63.40;;;;;;4971838;28;20395;-72
2022/01/07 02:08:12;;;;;;;4.38;1.38;;;24.40;63.40;;;;;;4968450;28;20113;-73
2022/01/07 02:10:39;;;;;;;2.83;1.38;;;24.40;63.50;;;;;;4972226;28;20037;-71
2022/01/07 02:13:06;;;;;;;7.40;1.40;;;24.40;63.50;;;;;;4968559;28;20065;-73
2022/01/07 02:15:32;;;;;;;14.60;1.95;;;24.40;63.40;;;;;;4970328;28;20031;-72
2022/01/07 02:17:59;;;;;;;12.65;2.53;;;24.40;63.40;;;;;;4968088;28;20027;-73
2022/01/07 02:20:31;;;;;;;7.38;1.95;;;24.40;63.40;;;;;;4971573;28;20045;-74
2022/01/07 02:22:58;;;;;;;9.25;2.20;;;24.40;63.50;;;;;;4971794;28;20398;-74
2022/01/07 02:25:26;;;;;;;4.82;1.40;;;24.40;63.50;;;;;;4967462;28;20106;-74
2022/01/07 02:27:54;;;;;;;4.00;1.52;;;24.40;63.60;;;;;;4972537;28;20026;-76
2022/01/07 02:30:26;;;;;;;4.82;1.52;;;24.40;63.70;;;;;;4962241;28;20082;-74
2022/01/07 02:32:54;;;;;;;10.90;2.53;;;24.40;63.80;;;;;;4970093;28;20047;-74
2022/01/07 02:35:22;;;;;;;10.38;1.77;;;24.40;63.90;;;;;;4963825;28;20090;-75
2022/01/07 02:37:49;;;;;;;53.50;5.82;;;24.40;63.90;;;;;;4972301;28;20046;-75
2022/01/07 02:40:16;;;;;;;23.85;4.85;;;24.30;64.20;;;;;;4970593;28;20034;-74
2022/01/07 02:42:42;;;;;;;38.63;5.07;;;24.30;64.60;;;;;;4967328;28;20023;-76
2022/01/07 02:45:10;;;;;;;35.08;5.35;;;24.30;64.70;;;;;;4969701;28;20058;-75
2022/01/07 02:47:57;;;;;;;27.73;2.90;;;24.30;64.60;;;;;;4969480;28;22003;-74
2022/01/07 02:50:36;;;;;;;15.93;2.10;;;24.30;64.70;;;;;;4969918;28;20035;-74
2022/01/07 02:53:08;;;;;;;7.90;2.33;;;24.30;64.60;;;;;;4970822;28;20042;-75
2022/01/07 02:55:36;;;;;;;6.60;2.60;;;24.20;64.30;;;;;;4971447;28;20126;-75
2022/01/07 02:58:03;;;;;;;6.25;1.77;;;24.20;64.10;;;;;;4971367;28;20037;-75
2022/01/07 03:00:30;;;;;;;13.07;2.75;;;24.20;64.00;;;;;;4970816;28;20031;-74
2022/01/07 03:02:58;;;;;;;13.15;2.25;;;24.20;64.10;;;;;;4971760;28;20019;-74
2022/01/07 03:05:25;;;;;;;9.93;2.85;;;24.20;64.10;;;;;;4970755;28;20103;-75
2022/01/07 03:07:52;;;;;;;18.67;2.90;;;24.20;64.20;;;;;;4969949;28;20026;-75
2022/01/07 03:10:29;;;;;;;22.10;3.10;;;24.10;64.30;;;;;;4969900;28;20042;-73
2022/01/07 03:12:57;;;;;;;37.05;5.65;;;24.10;64.40;;;;;;4968323;28;20079;-77
2022/01/07 03:15:24;;;;;;;33.85;4.78;;;24.10;64.60;;;;;;4968306;28;20031;-73
2022/01/07 03:17:50;;;;;;;32.30;4.45;;;24.10;64.90;;;;;;4969806;28;20019;-71
2022/01/07 03:20:19;;;;;;;66.68;9.25;;;24.10;64.80;;;;;;4968652;28;20091;-73
2022/01/07 03:22:47;;;;;;;61.17;6.43;;;24.10;64.80;;;;;;4970209;28;20042;-73
2022/01/07 03:25:21;;;;;;;42.47;5.20;;;24.10;64.90;;;;;;4968622;28;20023;-73
2022/01/07 03:27:48;;;;;;;43.50;6.00;;;24.10;64.90;;;;;;4955120;28;20121;-74
2022/01/07 03:30:17;;;;;;;25.52;3.05;;;24.00;64.90;;;;;;4963163;28;20565;-73
2022/01/07 03:32:43;;;;;;;18.77;2.08;;;24.10;64.90;;;;;;4970925;28;20082;-73
2022/01/07 03:35:11;;;;;;;41.72;4.75;;;24.10;65.10;;;;;;4968037;28;20492;-75
2022/01/07 03:37:39;;;;;;;67.38;8.00;;;24.00;65.30;;;;;;4971467;28;20533;-74
2022/01/07 03:40:07;;;;;;;46.03;4.78;;;24.00;65.60;;;;;;4970996;28;20038;-77
2022/01/07 03:42:33;;;;;;;17.65;2.47;;;24.00;65.70;;;;;;4968986;28;20023;-74
2022/01/07 03:45:00;;;;;;;18.45;2.47;;;24.00;65.60;;;;;;4971192;28;20022;-74
2022/01/07 03:47:27;;;;;;;31.70;4.38;;;24.00;65.50;;;;;;4953180;28;20442;-74
2022/01/07 03:49:54;;;;;;;66.63;9.50;;;24.00;65.50;;;;;;4967348;28;20059;-74
2022/01/07 03:52:20;;;;;;;60.75;10.02;;;24.00;65.60;;;;;;4966433;28;20015;-71
2022/01/07 03:54:47;;;;;;;11.27;2.47;;;23.90;65.80;;;;;;4970876;28;20546;-72
2022/01/07 03:57:13;;;;;;;5.60;2.03;;;24.00;66.30;;;;;;4970202;28;20080;-74
2022/01/07 03:59:40;;;;;;;6.65;1.52;;;23.80;66.40;;;;;;4968030;28;20027;-73
2022/01/07 04:02:06;;;;;;;6.63;1.23;;;23.70;66.70;;;;;;4966848;28;20023;-73
2022/01/07 04:04:33;;;;;;;25.13;3.97;;;23.50;67.20;;;;;;4967824;28;20031;-72
2022/01/07 04:06:59;;;;;;;78.00;14.20;;;23.40;67.80;;;;;;4969740;28;20018;-71
2022/01/07 04:09:26;;;;;;;78.57;17.27;;;23.40;68.20;;;;;;4968735;28;20039;-74
2022/01/07 04:11:52;;;;;;;69.72;18.10;;;23.40;68.20;;;;;;4968766;28;20042;-74
2022/01/07 04:14:19;;;;;;;63.10;11.90;;;23.50;68.10;;;;;;4965925;28;20015;-75
2022/01/07 04:16:45;;;;;;;45.20;9.23;;;23.50;67.90;;;;;;4968444;28;20026;-75
2022/01/07 04:19:12;;;;;;;14.32;4.60;;;23.60;68.30;;;;;;4969262;28;20390;-76
2022/01/07 04:21:38;;;;;;;45.50;7.30;;;23.60;67.40;;;;;;4965605;28;20082;-77
2022/01/07 04:24:07;;;;;;;57.13;7.60;;;23.70;67.50;;;;;;4970065;28;20060;-74
2022/01/07 04:26:34;;;;;;;53.90;10.80;;;23.70;67.60;;;;;;4952007;28;20026;-74
2022/01/07 04:29:17;;;;;;;36.45;9.95;;;23.70;67.60;;;;;;4966576;28;20074;-73
2022/01/07 04:31:44;;;;;;;19.65;6.68;;;23.70;67.70;;;;;;4954454;28;20031;-73
2022/01/07 04:34:14;;;;;;;18.20;3.58;;;23.80;67.80;;;;;;4972894;28;20023;-78
2022/01/07 04:36:41;;;;;;;18.92;3.47;;;23.80;67.90;;;;;;4952220;28;20406;-78
2022/01/07 04:39:07;;;;;;;22.35;3.67;;;23.80;68.00;;;;;;4950152;28;20037;-78
2022/01/07 04:41:34;;;;;;;28.27;4.10;;;23.80;68.20;;;;;;4968964;28;20480;-76
2022/01/07 04:44:00;;;;;;;23.98;10.98;;;23.90;68.30;;;;;;4969048;28;20061;-78
2022/01/07 04:46:27;;;;;;;36.80;23.30;;;23.90;68.30;;;;;;4971011;28;20026;-81
2022/01/07 04:48:53;;;;;;;22.05;15.38;;;23.90;68.30;;;;;;4964362;28;20689;-73
2022/01/07 04:51:40;;;;;;;23.27;11.32;;;23.90;68.30;;;;;;4967608;28;20093;-77
2022/01/07 04:54:10;;;;;;;50.05;10.55;;;23.90;68.20;;;;;;4952277;28;20097;-78
2022/01/07 04:56:38;;;;;;;32.63;5.20;;;23.90;68.30;;;;;;4950756;28;20023;-78
2022/01/07 04:59:04;;;;;;;26.60;5.50;;;23.90;68.40;;;;;;4969049;28;20128;-78
2022/01/07 05:01:50;;;;;;;64.30;6.78;;;24.00;68.80;;;;;;4968668;28;20027;-78
2022/01/07 05:04:20;;;;;;;28.98;4.55;;;24.00;69.10;;;;;;4951993;28;20077;-77
2022/01/07 05:06:47;;;;;;;28.10;4.35;;;24.00;69.40;;;;;;4970929;28;20015;-77
2022/01/07 05:09:16;;;;;;;27.27;3.95;;;24.00;69.20;;;;;;4953983;28;20081;-78
2022/01/07 05:11:51;;;;;;;35.60;3.85;;;24.00;69.30;;;;;;4953088;28;20030;-78
2022/01/07 05:14:22;;;;;;;47.05;6.50;;;24.00;69.00;;;;;;4967087;28;20097;-76
2022/01/07 05:16:49;;;;;;;49.40;5.40;;;24.00;68.80;;;;;;4969477;28;20101;-78
2022/01/07 05:19:16;;;;;;;30.63;3.35;;;24.00;68.80;;;;;;4969297;28;20019;-78
2022/01/07 05:21:42;;;;;;;25.30;2.72;;;24.10;68.80;;;;;;4968384;28;20569;-79
2022/01/07 05:24:09;;;;;;;8.68;1.88;;;24.10;68.90;;;;;;4967932;28;20026;-77
2022/01/07 05:26:35;;;;;;;13.00;5.10;;;24.10;69.10;;;;;;4967931;28;20034;-78
2022/01/07 05:29:02;;;;;;;9.32;6.00;;;24.10;69.00;;;;;;4968454;28;20035;-78
2022/01/07 05:31:29;;;;;;;12.65;5.18;;;24.10;69.10;;;;;;4972672;28;20023;-76
2022/01/07 05:33:56;;;;;;;18.15;5.85;;;24.10;69.20;;;;;;4966667;28;20023;-76
2022/01/07 05:36:23;;;;;;;13.50;4.30;;;24.10;69.50;;;;;;4955138;28;20026;-74
2022/01/07 05:38:50;;;;;;;7.63;3.15;;;24.10;69.30;;;;;;4951145;28;20113;-76
2022/01/07 05:41:17;;;;;;;7.30;2.30;;;24.20;69.30;;;;;;4973085;28;20011;-79
2022/01/07 05:43:44;;;;;;;4.82;1.70;;;24.20;69.30;;;;;;4968108;28;20062;-79
2022/01/07 05:46:14;;;;;;;51.67;31.70;;;24.20;69.30;;;;;;4972976;28;20035;-78
2022/01/07 05:48:45;;;;;;;49.83;34.65;;;24.20;69.40;;;;;;4965897;28;20061;-76
2022/01/07 05:51:12;;;;;;;71.93;31.38;;;24.30;69.60;;;;;;4969593;28;20023;-80
2022/01/07 05:53:39;;;;;;;45.00;19.52;;;24.30;69.80;;;;;;4971560;28;20053;-78
2022/01/07 05:56:06;;;;;;;25.80;14.05;;;24.30;69.70;;;;;;4967396;28;20018;-80
2022/01/07 05:58:33;;;;;;;26.40;8.88;;;24.30;69.60;;;;;;4954936;28;20113;-78
2022/01/07 06:01:00;;;;;;;28.17;9.30;;;24.40;69.60;;;;;;4970749;28;20152;-78
2022/01/07 06:03:26;;;;;;;12.02;4.45;;;24.40;69.80;;;;;;4973882;28;20037;-77
2022/01/07 06:05:53;;;;;;;20.23;5.53;;;24.40;69.70;;;;;;4967671;28;20146;-81
2022/01/07 06:08:19;;;;;;;11.27;3.63;;;24.50;69.70;;;;;;4973161;28;20089;-79
2022/01/07 06:10:46;;;;;;;14.35;10.60;;;24.50;69.60;;;;;;4971429;28;20049;-77
2022/01/07 06:13:12;;;;;;;13.57;8.60;;;24.60;69.50;;;;;;4971687;28;20102;-76
2022/01/07 06:15:39;;;;;;;13.57;6.03;;;24.60;69.40;;;;;;4960328;28;20023;-74
2022/01/07 06:18:06;;;;;;;11.35;4.82;;;24.60;69.30;;;;;;4969312;28;20113;-77
2022/01/07 06:20:33;;;;;;;5.93;4.13;;;24.70;69.20;;;;;;4972969;28;20382;-74
2022/01/07 06:22:59;;;;;;;5.45;3.05;;;24.70;69.00;;;;;;4974950;28;20030;-75
2022/01/07 06:25:26;;;;;;;9.77;2.90;;;24.80;69.00;;;;;;4967406;28;20359;-72
2022/01/07 06:27:52;;;;;;;8.57;2.30;;;24.80;68.80;;;;;;4970187;28;20520;-79
2022/01/07 06:30:19;;;;;;;28.92;3.78;;;24.80;68.60;;;;;;4961706;28;20065;-76
2022/01/07 06:32:45;;;;;;;14.50;2.42;;;24.90;68.50;;;;;;4967703;28;20028;-73
2022/01/07 06:35:12;;;;;;;29.25;7.53;;;24.90;68.30;;;;;;4972620;28;20050;-75
2022/01/07 06:37:39;;;;;;;35.40;7.72;;;24.90;68.30;;;;;;4973968;28;20025;-76
2022/01/07 06:40:06;;;;;;;11.07;4.50;;;25.00;68.30;;;;;;4971997;28;20026;-75
2022/01/07 06:42:33;;;;;;;46.95;7.03;;;25.00;68.30;;;;;;4968728;28;20023;-76
2022/01/07 06:45:00;;;;;;;32.25;4.43;;;25.00;68.20;;;;;;4967726;28;20035;-77
2022/01/07 06:47:26;;;;;;;26.50;4.53;;;25.00;68.40;;;;;;4967156;28;20058;-75
2022/01/07 06:49:53;;;;;;;31.70;4.07;;;25.10;68.30;;;;;;4971138;28;20126;-75
2022/01/07 06:52:20;;;;;;;17.65;3.15;;;25.10;68.10;;;;;;4972930;28;20074;-75
2022/01/07 06:54:46;;;;;;;17.63;2.80;;;25.10;67.90;;;;;;4968846;28;20527;-75
2022/01/07 06:57:13;;;;;;;7.50;2.95;;;25.10;67.70;;;;;;4969678;28;20422;-76
2022/01/07 06:59:39;;;;;;;14.63;2.33;;;25.20;67.60;;;;;;4972935;28;20110;-74
2022/01/07 07:02:05;;;;;;;8.88;2.00;;;25.20;67.50;;;;;;4970231;28;20026;-75
2022/01/07 07:04:32;;;;;;;5.25;1.58;;;25.20;67.30;;;;;;4971992;28;20475;-75
2022/01/07 07:06:58;;;;;;;3.17;1.38;;;25.30;67.20;;;;;;4969492;28;20018;-76
2022/01/07 07:09:25;;;;;;;14.82;2.30;;;25.30;67.20;;;;;;4970046;28;20034;-75
2022/01/07 07:11:52;;;;;;;57.70;5.38;;;25.30;67.20;;;;;;4967545;28;20512;-76
2022/01/07 07:14:18;;;;;;;69.40;5.82;;;25.40;67.20;;;;;;4972298;28;20053;-75
2022/01/07 07:16:45;;;;;;;32.35;4.10;;;25.50;67.40;;;;;;4970120;28;20027;-74
2022/01/07 07:19:11;;;;;;;22.35;2.53;;;25.50;67.30;;;;;;4963406;28;20110;-75
2022/01/07 07:21:38;;;;;;;17.33;6.72;;;25.50;66.80;;;;;;4967058;28;20121;-75
2022/01/07 07:24:05;;;;;;;9.95;3.63;;;25.50;66.50;;;;;;4960315;28;20432;-75
2022/01/07 07:26:31;;;;;;;8.02;2.65;;;25.60;66.40;;;;;;4966920;28;20035;-76
2022/01/07 07:28:58;;;;;;;11.23;3.22;;;25.60;66.10;;;;;;4965851;28;20034;-75
2022/01/07 07:31:24;;;;;;;4.10;1.88;;;25.70;65.90;;;;;;4971723;28;20133;-76
2022/01/07 07:36:31;;;;;;;6.63;1.95;;;25.80;65.70;;;;;;4971255;28;20058;-76
2022/01/07 07:39:01;;;;;;;4.00;1.45;;;25.80;65.40;;;;;;4968506;28;20066;-76
2022/01/07 07:41:28;;;;;;;6.70;2.33;;;25.80;65.00;;;;;;4967878;28;20066;-75
2022/01/07 07:43:59;;;;;;;6.43;1.90;;;25.90;64.80;;;;;;4969836;28;20030;-74
2022/01/07 07:46:28;;;;;;;2.60;1.58;;;26.00;64.90;;;;;;4965103;28;20099;-76
2022/01/07 07:48:54;;;;;;;13.38;2.33;;;26.00;64.80;;;;;;4968984;28;20071;-74
2022/01/07 07:51:21;;;;;;;8.00;1.95;;;26.10;64.90;;;;;;4967371;28;20042;-75
2022/01/07 07:53:48;;;;;;;3.83;1.40;;;26.10;65.00;;;;;;4968883;28;20024;-75
2022/01/07 07:56:17;;;;;;;5.68;2.17;;;26.10;64.90;;;;;;4964287;28;20033;-76
2022/01/07 07:58:44;;;;;;;5.80;1.75;;;26.20;65.00;;;;;;4968514;28;20030;-76
2022/01/07 08:01:12;;;;;;;9.43;1.83;;;26.20;65.00;;;;;;4954245;28;20106;-75
2022/01/07 08:03:39;;;;;;;16.33;2.05;;;26.30;65.20;;;;;;4968778;28;20022;-75
2022/01/07 08:06:06;;;;;;;23.67;3.63;;;26.40;64.90;;;;;;4965199;28;20450;-75
2022/01/07 08:08:33;;;;;;;11.50;2.58;;;26.40;64.60;;;;;;4970459;28;20038;-73
2022/01/07 08:11:02;;;;;;;20.42;3.05;;;26.50;64.50;;;;;;4960656;28;20089;-73
2022/01/07 08:13:30;;;;;;;10.40;2.00;;;26.60;64.40;;;;;;4968617;28;20098;-74
2022/01/07 08:15:58;;;;;;;13.75;2.03;;;26.60;64.00;;;;;;4968426;28;20105;-75
2022/01/07 08:18:34;;;;;;;9.15;2.25;;;26.70;63.90;;;;;;4969747;28;20045;-75
2022/01/07 08:21:04;;;;;;;11.93;2.72;;;26.70;63.80;;;;;;4963934;28;20037;-73
2022/01/07 08:23:32;;;;;;;11.15;2.50;;;26.80;63.90;;;;;;4967317;28;20113;-74
2022/01/07 08:25:59;;;;;;;14.85;2.63;;;26.80;63.70;;;;;;4953495;28;20022;-74
2022/01/07 08:28:31;;;;;;;12.10;1.80;;;26.90;63.60;;;;;;4952439;28;20437;-76
2022/01/07 08:36:15;;;;;;;10.30;2.22;;;27.00;63.30;;;;;;4971359;28;20085;-74
2022/01/07 08:38:42;;;;;;;5.93;1.50;;;27.10;63.10;;;;;;4965484;28;20023;-73
2022/01/07 08:41:09;;;;;;;5.63;1.30;;;27.10;63.00;;;;;;4969462;28;20039;-77
2022/01/07 08:43:36;;;;;;;12.02;1.50;;;27.20;63.00;;;;;;4965607;28;20085;-74
2022/01/07 08:46:06;;;;;;;2.90;1.13;;;27.20;62.70;;;;;;4969007;28;20019;-74
2022/01/07 08:48:33;;;;;;;5.40;1.80;;;27.20;62.60;;;;;;4970940;28;20015;-74
2022/01/07 08:51:00;;;;;;;13.38;2.17;;;27.30;62.50;;;;;;4965993;28;20603;-74
2022/01/07 08:53:27;;;;;;;6.47;1.23;;;27.30;62.40;;;;;;4968792;28;20023;-75
2022/01/07 08:55:53;;;;;;;7.85;1.58;;;27.40;62.30;;;;;;4965782;28;20422;-75
2022/01/07 08:58:20;;;;;;;4.72;1.02;;;27.50;62.20;;;;;;4971309;28;20482;-73
2022/01/07 09:00:47;;;;;;;11.18;3.03;;;27.50;61.90;;;;;;4969542;28;20113;-74
2022/01/07 09:03:13;;;;;;;4.45;1.33;;;27.60;61.90;;;;;;4966020;28;20050;-74
2022/01/07 09:05:40;;;;;;;7.63;1.90;;;27.60;61.50;;;;;;4964884;28;20034;-76
2022/01/07 09:08:09;;;;;;;4.32;1.80;;;27.70;61.40;;;;;;4968531;28;20057;-74
2022/01/07 09:10:36;;;;;;;6.72;2.22;;;27.70;61.30;;;;;;4971411;28;20041;-75
2022/01/07 09:13:03;;;;;;;12.25;2.55;;;27.80;61.10;;;;;;4970512;28;20034;-75
2022/01/07 09:15:30;;;;;;;6.05;2.63;;;27.80;60.90;;;;;;4971061;28;20030;-75
2022/01/07 09:17:56;;;;;;;8.55;1.48;;;27.90;60.60;;;;;;4969718;28;20019;-74
2022/01/07 09:20:23;;;;;;;5.43;1.92;;;27.90;60.20;;;;;;4963490;28;20467;-74
2022/01/07 09:22:50;;;;;;;9.93;2.60;;;28.00;60.20;;;;;;4971811;28;20145;-75
2022/01/07 09:25:17;;;;;;;8.00;1.77;;;28.00;60.20;;;;;;4969949;28;20065;-75
2022/01/07 09:27:43;;;;;;;4.32;1.60;;;28.10;60.10;;;;;;4970038;28;20022;-75
2022/01/07 09:30:11;;;;;;;3.83;1.35;;;28.20;59.90;;;;;;4972557;28;20480;-75
2022/01/07 09:32:38;;;;;;;7.50;2.38;;;28.20;59.70;;;;;;4970439;28;20045;-75
2022/01/07 09:35:06;;;;;;;4.28;1.70;;;28.30;59.60;;;;;;4956460;28;20857;-75
2022/01/07 09:37:35;;;;;;;6.95;1.45;;;28.30;59.50;;;;;;4968353;28;20034;-75
2022/01/07 09:40:01;;;;;;;9.57;1.50;;;28.30;59.20;;;;;;4970938;28;20031;-75
2022/01/07 09:42:28;;;;;;;3.30;1.30;;;28.40;59.70;;;;;;4963365;28;20019;-75
2022/01/07 09:44:57;;;;;;;5.43;2.85;;;28.50;59.10;;;;;;4957167;28;20418;-76
2022/01/07 09:47:26;;;;;;;11.30;2.85;;;28.50;59.10;;;;;;4966842;28;20475;-76
2022/01/07 09:49:53;;;;;;;10.00;1.60;;;28.50;59.00;;;;;;4971862;28;20070;-75
2022/01/07 09:52:19;;;;;;;10.25;1.80;;;28.60;59.10;;;;;;4970598;28;20019;-76
2022/01/07 09:54:48;;;;;;;5.60;2.35;;;28.60;59.10;;;;;;4974201;28;20030;-75
2022/01/07 09:57:16;;;;;;;4.68;2.00;;;28.70;59.00;;;;;;4966049;28;20025;-74
2022/01/07 09:59:50;;;;;;;4.05;1.63;;;28.80;58.80;;;;;;4967109;28;20033;-76
2022/01/07 10:02:17;;;;;;;3.00;1.10;;;28.80;58.60;;;;;;4971894;28;20023;-76
2022/01/07 10:04:44;;;;;;;3.80;1.10;;;28.90;58.10;;;;;;4965700;28;20037;-76
2022/01/07 10:07:23;;;;;;;3.42;1.48;;;28.90;57.80;;;;;;4973809;28;20034;-75
2022/01/07 10:10:05;;;;;;;16.15;2.42;;;29.00;57.90;;;;;;4972991;28;20062;-75
2022/01/07 10:12:52;;;;;;;9.27;2.13;;;29.00;57.70;;;;;;4970359;28;20027;-74
2022/01/07 10:15:21;;;;;;;9.57;2.30;;;29.10;57.90;;;;;;4972636;28;20027;-75
2022/01/07 10:17:55;;;;;;;8.05;1.50;;;29.10;57.80;;;;;;4963286;28;20530;-75
2022/01/07 10:20:24;;;;;;;5.60;2.17;;;29.20;57.80;;;;;;4970138;28;20019;-76
2022/01/07 10:23:03;;;;;;;8.20;1.73;;;29.20;57.70;;;;;;4953489;28;20517;-74
2022/01/07 10:25:35;;;;;;;12.43;2.88;;;29.30;57.70;;;;;;4966805;28;20042;-76
2022/01/07 10:28:15;;;;;;;12.73;3.83;;;29.30;57.60;;;;;;4964102;28;20478;-76
2022/01/07 10:30:45;;;;;;;28.73;2.83;;;29.30;57.60;;;;;;4970360;28;20390;-74
2022/01/07 10:33:38;;;;;;;20.77;2.75;;;29.40;57.70;;;;;;4969890;28;20023;-76
2022/01/07 10:36:07;;;;;;;24.77;2.95;;;29.40;57.60;;;;;;4968196;28;20034;-75
2022/01/07 10:38:36;;;;;;;35.17;4.35;;;29.40;57.40;;;;;;4967012;28;20024;-76
2022/01/07 10:41:04;;;;;;;21.65;3.33;;;29.40;57.30;;;;;;4964089;28;20471;-76
2022/01/07 10:43:35;;;;;;;19.10;3.95;;;29.50;57.20;;;;;;4968716;28;20442;-75
2022/01/07 10:46:27;;;;;;;16.23;3.13;;;29.50;57.10;;;;;;4973659;28;20134;-75
2022/01/07 10:48:56;;;;;;;10.82;2.53;;;29.50;57.00;;;;;;4974951;28;20034;-76
2022/01/07 10:51:38;;;;;;;7.57;2.22;;;29.60;56.90;;;;;;4974050;28;20041;-74
2022/01/07 10:54:09;;;;;;;5.55;1.70;;;29.60;56.80;;;;;;4968178;28;20026;-77
2022/01/07 10:56:42;;;;;;;6.75;2.20;;;29.60;56.80;;;;;;4963901;28;20031;-75
2022/01/07 10:59:14;;;;;;;9.30;3.33;;;29.70;56.80;;;;;;4970425;28;20474;-76
2022/01/07 11:01:44;;;;;;;10.88;4.28;;;29.70;56.70;;;;;;4968725;28;20030;-75
2022/01/07 11:04:22;;;;;;;13.35;5.35;;;29.80;56.70;;;;;;4962519;28;20486;-77
2022/01/07 11:06:55;;;;;;;15.68;5.78;;;29.80;56.50;;;;;;4969456;28;20025;-76
2022/01/07 11:09:21;;;;;;;11.50;6.40;;;29.80;56.50;;;;;;4980296;28;20122;-76
2022/01/07 11:11:54;;;;;;;12.10;7.25;;;29.90;56.50;;;;;;4973769;28;20082;-74
2022/01/07 11:14:32;;;;;;;20.05;8.80;;;29.90;56.60;;;;;;4966226;28;20027;-75
2022/01/07 11:17:04;;;;;;;16.17;8.30;;;29.90;56.60;;;;;;4969058;28;20474;-75
2022/01/07 11:19:39;;;;;;;16.58;9.25;;;29.90;56.50;;;;;;4967325;28;20046;-75
2022/01/07 11:22:11;;;;;;;21.63;10.45;;;30.00;56.50;;;;;;4962560;28;20696;-75
2022/01/07 11:24:42;;;;;;;17.58;10.00;;;30.10;56.40;;;;;;4949137;28;20074;-74
2022/01/07 11:27:10;;;;;;;12.88;7.95;;;30.10;56.30;;;;;;4968258;28;20034;-75
2022/01/07 11:29:39;;;;;;;12.43;7.95;;;30.10;56.20;;;;;;4977426;28;20402;-75
2022/01/07 11:32:38;;;;;;;15.52;8.00;;;30.10;56.20;;;;;;4969189;28;20422;-75
2022/01/07 11:35:20;;;;;;;17.42;10.63;;;30.20;56.20;;;;;;4956020;28;20026;-73
2022/01/07 11:37:52;;;;;;;22.38;12.35;;;30.30;56.10;;;;;;4967490;28;20378;-74
2022/01/07 11:40:33;;;;;;;20.95;11.95;;;30.30;55.90;;;;;;4957883;28;20027;-74
2022/01/07 11:43:18;;;;;;;16.13;9.63;;;30.30;55.80;;;;;;4971837;28;20034;-74
2022/01/07 11:45:45;;;;;;;13.57;8.68;;;30.30;55.80;;;;;;4951187;28;20030;-73
2022/01/07 11:48:18;;;;;;;17.52;7.55;;;30.40;55.90;;;;;;4961862;28;20034;-73
2022/01/07 11:51:05;;;;;;;8.15;6.30;;;30.40;55.90;;;;;;4975363;28;20486;-75
2022/01/07 11:53:43;;;;;;;9.68;5.75;;;30.50;55.80;;;;;;4951502;28;20517;-73
2022/01/07 11:56:19;;;;;;;9.27;5.45;;;30.50;55.60;;;;;;4966431;28;20026;-76
2022/01/07 11:58:55;;;;;;;17.38;5.22;;;30.50;55.60;;;;;;4966176;28;20034;-74
2022/01/07 12:01:35;;;;;;;13.25;4.93;;;30.50;55.50;;;;;;4957256;28;20031;-75
2022/01/07 12:04:19;;;;;;;10.68;3.85;;;30.50;55.50;;;;;;4968185;28;20023;-76
2022/01/07 12:06:48;;;;;;;9.68;5.43;;;30.50;55.60;;;;;;4970591;28;20414;-75
2022/01/07 12:09:20;;;;;;;8.43;4.35;;;30.60;55.60;;;;;;4968764;28;20039;-75
2022/01/07 12:11:58;;;;;;;10.50;3.50;;;30.50;55.50;;;;;;4970606;28;20027;-75
2022/01/07 12:14:34;;;;;;;7.45;3.25;;;30.60;55.40;;;;;;4965472;28;20053;-73
2022/01/07 12:17:03;;;;;;;6.43;3.38;;;30.60;55.40;;;;;;4970857;28;20026;-74
2022/01/07 12:19:35;;;;;;;7.07;3.45;;;30.70;55.30;;;;;;4969023;28;20035;-74
2022/01/07 12:22:02;;;;;;;9.52;4.13;;;30.70;55.20;;;;;;4965402;28;20129;-75
2022/01/07 12:24:30;;;;;;;8.65;3.45;;;30.70;55.30;;;;;;4966099;28;20053;-76
2022/01/07 12:27:20;;;;;;;5.68;2.65;;;30.70;55.40;;;;;;4968268;28;20074;-76
2022/01/07 12:29:52;;;;;;;11.95;3.90;;;30.70;55.40;;;;;;4969974;28;20074;-75
2022/01/07 12:32:20;;;;;;;23.30;5.45;;;30.70;55.40;;;;;;4952559;28;20030;-74
2022/01/07 12:34:50;;;;;;;14.55;3.25;;;30.70;55.30;;;;;;4970924;28;20451;-76
2022/01/07 12:37:22;;;;;;;13.95;3.30;;;30.70;55.30;;;;;;4967041;28;20035;-76
2022/01/07 12:39:56;;;;;;;13.18;3.80;;;30.80;55.30;;;;;;4974346;28;20026;-75
2022/01/07 12:42:26;;;;;;;15.68;2.85;;;30.80;55.20;;;;;;4971057;28;20158;-73
2022/01/07 12:44:57;;;;;;;9.80;3.67;;;30.80;55.10;;;;;;4973479;28;20023;-76
2022/01/07 12:47:27;;;;;;;8.38;3.38;;;30.80;55.10;;;;;;4954641;28;20038;-74
2022/01/07 12:49:55;;;;;;;10.25;2.83;;;30.80;55.00;;;;;;4974661;28;20089;-75
2022/01/07 12:52:24;;;;;;;14.15;3.05;;;30.90;55.00;;;;;;4976077;28;20011;-75
2022/01/07 12:55:02;;;;;;;28.60;3.97;;;30.90;55.00;;;;;;4952603;28;20082;-75
2022/01/07 12:57:46;;;;;;;23.83;4.38;;;30.90;55.00;;;;;;4969666;28;20029;-75
2022/01/07 13:00:17;;;;;;;30.13;3.78;;;30.90;54.90;;;;;;4969959;28;20027;-75